Time;durP1;ratioP1;P1;durP2;ratioP2;P2;SDS_P1;SDS_P2;PMS_P1;PMS_P2;Temp;Humidity;BMP_temperature;BMP_pressure;BME280_temperature;BME280_humidity;BME280_pressure;Samples;Min_cycle;Max_cycle;Signal;HPM_P1;HPM_P2
2023/07/19 00:00:46;;;;;;;0.70;0.70;;;;;;;29.13;48.40;100065.09;5052454;28;20199;-69
2023/07/19 00:03:12;;;;;;;0.68;0.68;;;;;;;29.08;48.71;100056.50;5031863;28;20195;-69
2023/07/19 00:05:39;;;;;;;0.70;0.70;;;;;;;29.02;48.87;100057.75;5051390;28;20195;-70
2023/07/19 00:08:06;;;;;;;0.70;0.70;;;;;;;29.17;48.96;100085.34;5051671;28;20241;-68
2023/07/19 00:10:34;;;;;;;0.60;0.60;;;;;;;29.09;48.92;100067.09;5016121;28;20673;-68
2023/07/19 00:13:01;;;;;;;0.60;0.60;;;;;;;29.10;48.88;100089.34;5050903;28;20195;-68
2023/07/19 00:15:28;;;;;;;0.60;0.60;;;;;;;29.08;50.58;100093.88;5052206;28;20272;-68
2023/07/19 00:17:55;;;;;;;0.60;0.60;;;;;;;29.03;50.24;100096.88;5050878;28;20235;-67
2023/07/19 00:20:21;;;;;;;0.70;0.70;;;;;;;28.99;50.52;100100.66;5032072;28;20202;-68
2023/07/19 00:22:48;;;;;;;0.60;0.60;;;;;;;28.81;50.04;100073.28;5050687;28;20633;-69
2023/07/19 00:25:15;;;;;;;0.70;0.70;;;;;;;28.93;49.67;100098.38;5050801;28;20206;-68
2023/07/19 00:27:43;;;;;;;0.70;0.70;;;;;;;28.95;50.18;100101.81;5051473;28;20191;-68
2023/07/19 00:30:11;;;;;;;0.68;0.68;;;;;;;28.88;50.07;100095.97;5051960;28;20203;-68
2023/07/19 00:32:38;;;;;;;0.70;0.70;;;;;;;28.81;50.43;100097.28;5050833;28;20214;-68
2023/07/19 00:35:06;;;;;;;0.77;0.77;;;;;;;28.82;51.26;100091.00;5050534;28;20218;-69
2023/07/19 00:37:32;;;;;;;0.77;0.77;;;;;;;28.76;51.23;100094.03;5017016;28;20226;-68
2023/07/19 00:39:59;;;;;;;0.70;0.70;;;;;;;28.72;50.50;100087.16;5050314;28;20195;-68
2023/07/19 00:42:26;;;;;;;0.70;0.70;;;;;;;28.70;50.57;100088.19;5051496;28;20237;-68
2023/07/19 00:44:54;;;;;;;1.00;1.00;;;;;;;28.56;50.89;100062.31;5051031;28;20206;-68
2023/07/19 00:47:21;;;;;;;1.25;1.25;;;;;;;28.58;51.19;100087.94;5049641;28;20195;-68
2023/07/19 00:49:48;;;;;;;0.60;0.60;;;;;;;28.63;50.89;100081.47;5049811;28;20206;-68
2023/07/19 00:52:15;;;;;;;0.70;0.70;;;;;;;28.59;51.49;100083.47;5050842;28;20203;-69
2023/07/19 00:54:42;;;;;;;0.65;0.65;;;;;;;28.58;51.68;100081.75;5051171;28;20280;-68
2023/07/19 00:57:09;;;;;;;0.70;0.70;;;;;;;28.57;52.21;100082.72;5051270;28;20578;-69
2023/07/19 00:59:36;;;;;;;0.60;0.60;;;;;;;28.10;52.72;100004.59;5051566;28;20207;-68
2023/07/19 01:02:05;;;;;;;0.70;0.70;;;;;;;28.61;52.39;100089.56;5051306;28;20203;-69
2023/07/19 01:04:32;;;;;;;0.65;0.65;;;;;;;28.54;53.52;100082.88;5049472;28;20218;-70
2023/07/19 01:06:59;;;;;;;0.73;0.73;;;;;;;28.51;53.82;100083.06;5050751;28;20199;-70
2023/07/19 01:09:27;;;;;;;0.60;0.60;;;;;;;28.54;53.22;100078.38;5049842;28;20550;-69
2023/07/19 01:11:54;;;;;;;0.75;0.75;;;;;;;28.49;53.32;100074.28;5051273;28;20195;-69
2023/07/19 01:14:21;;;;;;;0.70;0.70;;;;;;;28.45;53.96;100083.41;5050477;28;20204;-68
2023/07/19 01:16:47;;;;;;;0.60;0.60;;;;;;;28.33;54.30;100079.66;5035805;28;20204;-68
2023/07/19 01:19:16;;;;;;;0.70;0.70;;;;;;;28.31;54.20;100057.56;5044432;28;20643;-68
2023/07/19 01:21:43;;;;;;;0.80;0.80;;;;;;;28.28;54.90;100055.06;5051040;28;20630;-68
2023/07/19 01:24:11;;;;;;;1.05;1.00;;;;;;;28.49;58.64;100069.81;5050197;28;20639;-68
2023/07/19 01:26:38;;;;;;;0.70;0.70;;;;;;;28.43;56.21;100069.31;5049667;28;20285;-68
2023/07/19 01:29:04;;;;;;;0.70;0.70;;;;;;;28.39;54.84;100065.13;5050965;28;20328;-68
2023/07/19 01:31:30;;;;;;;0.93;0.90;;;;;;;28.39;61.91;100062.44;5050894;28;20195;-68
2023/07/19 01:33:57;;;;;;;0.65;0.65;;;;;;;28.46;59.49;100061.13;5050843;28;20658;-68
2023/07/19 01:36:25;;;;;;;0.60;0.60;;;;;;;28.43;56.01;100061.31;5049685;28;20214;-68
2023/07/19 01:38:52;;;;;;;0.95;0.95;;;;;;;28.54;63.00;100054.38;5049480;28;20313;-68
2023/07/19 01:41:20;;;;;;;0.65;0.65;;;;;;;28.74;59.56;100063.91;5050298;28;20210;-68
2023/07/19 01:43:47;;;;;;;0.60;0.60;;;;;;;28.72;59.62;100063.13;5050354;28;20203;-68
2023/07/19 01:46:14;;;;;;;0.70;0.70;;;;;;;28.72;60.59;100065.78;5050474;28;20237;-68
2023/07/19 01:48:41;;;;;;;0.60;0.60;;;;;;;28.78;59.90;100060.13;5050032;28;20199;-68
2023/07/19 01:51:08;;;;;;;0.70;0.70;;;;;;;28.86;59.14;100070.34;5050230;28;20211;-68
2023/07/19 01:53:34;;;;;;;0.80;0.80;;;;;;;28.91;59.58;100077.09;5048501;28;20203;-68
2023/07/19 01:56:01;;;;;;;0.90;0.90;;;;;;;28.89;56.90;100078.16;5048775;28;20684;-68
2023/07/19 01:58:29;;;;;;;0.63;0.63;;;;;;;28.88;57.22;100077.28;5050073;28;20297;-68
2023/07/19 02:00:56;;;;;;;0.50;0.50;;;;;;;28.78;56.53;100077.94;5050604;28;20674;-68
2023/07/19 02:03:23;;;;;;;0.68;0.68;;;;;;;28.70;56.27;100081.06;5049390;28;20203;-68
2023/07/19 02:05:57;;;;;;;0.60;0.60;;;;;;;28.76;63.02;100067.34;5050155;28;20206;-68
2023/07/19 02:08:24;;;;;;;0.60;0.60;;;;;;;28.65;64.97;100063.56;5047416;28;20230;-68
2023/07/19 02:10:51;;;;;;;0.77;0.77;;;;;;;28.60;64.90;100061.19;5050161;28;20634;-69
2023/07/19 02:13:17;;;;;;;0.60;0.60;;;;;;;28.61;61.58;100068.22;5048961;28;20207;-68
2023/07/19 02:15:47;;;;;;;0.68;0.68;;;;;;;28.52;63.49;100048.28;5049835;28;20207;-68
2023/07/19 02:18:14;;;;;;;0.63;0.63;;;;;;;28.36;63.61;100047.47;5048828;28;20352;-68
2023/07/19 02:20:45;;;;;;;0.70;0.70;;;;;;;28.49;63.00;100063.63;5050310;28;20253;-68
2023/07/19 02:23:11;;;;;;;0.60;0.60;;;;;;;28.45;66.96;100062.06;5048997;28;20341;-68
2023/07/19 02:25:40;;;;;;;0.70;0.70;;;;;;;28.65;68.22;100069.75;5050703;28;20612;-68
2023/07/19 02:28:08;;;;;;;0.60;0.60;;;;;;;28.41;68.33;100065.88;5054260;28;20201;-68
2023/07/19 02:30:34;;;;;;;0.60;0.60;;;;;;;28.24;68.89;100076.66;5019036;28;20274;-68
2023/07/19 02:33:03;;;;;;;0.70;0.70;;;;;;;28.22;68.52;100073.25;5053110;28;20272;-68
2023/07/19 02:35:29;;;;;;;0.60;0.60;;;;;;;27.94;71.76;100060.56;5019482;28;20207;-68
2023/07/19 02:37:56;;;;;;;0.60;0.60;;;;;;;27.99;75.18;100059.38;5058632;28;20299;-68
2023/07/19 02:40:23;;;;;;;0.60;0.60;;;;;;;28.02;75.96;100051.19;5017914;28;20202;-68
2023/07/19 02:42:50;;;;;;;0.68;0.68;;;;;;;27.84;73.91;100046.03;5053196;28;20237;-68
2023/07/19 02:45:16;;;;;;;0.75;0.75;;;;;;;27.75;74.04;100065.22;5053578;28;20203;-68
2023/07/19 02:47:43;;;;;;;0.85;0.85;;;;;;;27.70;77.52;100059.28;5053603;28;20203;-68
2023/07/19 02:50:11;;;;;;;0.70;0.70;;;;;;;27.82;77.45;100066.59;5051038;28;20500;-68
2023/07/19 02:52:38;;;;;;;0.80;0.80;;;;;;;27.68;80.23;100032.75;5052584;28;20202;-68
2023/07/19 02:55:06;;;;;;;0.70;0.70;;;;;;;27.93;77.75;100059.69;5048562;28;20222;-69
2023/07/19 02:57:32;;;;;;;0.77;0.77;;;;;;;27.87;75.80;100057.41;5033000;28;20690;-68
2023/07/19 02:59:59;;;;;;;0.80;0.80;;;;;;;27.79;73.41;100056.13;5051648;28;20199;-68
2023/07/19 03:02:26;;;;;;;0.77;0.77;;;;;;;27.82;72.77;100061.28;5050510;28;20207;-69
2023/07/19 03:04:53;;;;;;;0.60;0.60;;;;;;;27.87;69.55;100054.72;5013917;28;20694;-68
2023/07/19 03:07:21;;;;;;;0.70;0.70;;;;;;;28.07;74.19;100050.97;5050955;28;20198;-69
2023/07/19 03:09:48;;;;;;;0.60;0.60;;;;;;;28.02;67.66;100053.00;5047877;28;20211;-68
2023/07/19 03:12:14;;;;;;;0.70;0.70;;;;;;;27.99;70.33;100048.72;5022542;28;20206;-68
2023/07/19 03:14:41;;;;;;;0.65;0.65;;;;;;;28.00;70.03;100049.56;5041776;28;20261;-68
2023/07/19 03:17:08;;;;;;;0.82;0.82;;;;;;;27.91;69.91;100040.28;5015481;28;20211;-69
2023/07/19 03:19:35;;;;;;;0.70;0.70;;;;;;;28.13;70.56;100068.41;5047969;28;20227;-69
2023/07/19 03:22:02;;;;;;;0.60;0.60;;;;;;;28.16;67.49;100062.91;5045174;28;20291;-69
2023/07/19 03:24:31;;;;;;;0.77;0.77;;;;;;;28.31;64.94;100062.03;5052174;28;20199;-69
2023/07/19 03:26:57;;;;;;;0.60;0.60;;;;;;;28.21;64.42;100052.84;5051591;28;20663;-69
2023/07/19 03:29:24;;;;;;;0.70;0.70;;;;;;;28.31;64.42;100072.69;5051796;28;20673;-66
2023/07/19 03:31:51;;;;;;;0.98;0.98;;;;;;;28.29;66.89;100067.44;5050361;28;20272;-69
2023/07/19 03:34:18;;;;;;;0.60;0.60;;;;;;;28.09;70.33;100067.72;5051000;28;20584;-69
2023/07/19 03:36:45;;;;;;;0.70;0.70;;;;;;;28.20;71.23;100067.13;5050980;28;20203;-69
2023/07/19 03:39:11;;;;;;;1.05;1.05;;;;;;;28.11;72.96;100054.31;5051351;28;20211;-69
2023/07/19 03:41:39;;;;;;;0.70;0.70;;;;;;;28.41;75.66;100068.53;5050796;28;20192;-69
2023/07/19 03:44:06;;;;;;;0.63;0.63;;;;;;;28.66;79.84;100073.28;5051542;28;20222;-70
2023/07/19 03:46:33;;;;;;;1.20;1.20;;;;;;;29.06;80.31;100072.63;5050546;28;20665;-70
2023/07/19 03:49:00;;;;;;;0.70;0.70;;;;;;;29.49;75.12;100073.53;5011714;28;20204;-69
2023/07/19 03:51:26;;;;;;;0.60;0.60;;;;;;;29.56;75.35;100056.16;5041424;28;20279;-70
2023/07/19 03:53:53;;;;;;;0.70;0.70;;;;;;;30.11;73.23;100066.84;5051376;28;20234;-71
2023/07/19 03:56:20;;;;;;;0.80;0.80;;;;;;;30.55;69.65;100082.66;5050687;28;20304;-71
2023/07/19 03:58:49;;;;;;;0.80;0.80;;;;;;;30.51;66.27;100075.78;5010643;28;1164492;-71
2023/07/19 04:01:16;;;;;;;0.60;0.60;;;;;;;30.82;63.91;100078.09;5050313;28;20231;-71
2023/07/19 04:03:43;;;;;;;0.68;0.68;;;;;;;31.00;62.77;100069.81;5049211;28;20211;-76
2023/07/19 04:06:10;;;;;;;0.60;0.60;;;;;;;31.04;62.21;100084.69;5023876;28;20226;-68
2023/07/19 04:08:36;;;;;;;0.60;0.60;;;;;;;31.24;59.58;100081.47;5052125;28;20190;-68
2023/07/19 04:11:03;;;;;;;0.60;0.60;;;;;;;30.78;62.09;99993.59;5051592;28;20206;-68
2023/07/19 04:13:30;;;;;;;0.68;0.68;;;;;;;31.09;65.81;100072.69;5049598;28;20210;-68
2023/07/19 04:15:58;;;;;;;0.80;0.80;;;;;;;30.88;67.71;100039.31;5029726;28;20276;-68
2023/07/19 04:18:25;;;;;;;0.85;0.85;;;;;;;30.57;67.31;100035.25;5015581;28;20303;-69
2023/07/19 04:20:57;;;;;;;1.27;1.17;;;;;;;31.03;68.17;100064.22;5052120;28;20249;-69
2023/07/19 04:23:24;;;;;;;0.70;0.70;;;;;;;31.56;67.00;100058.63;5050757;28;20278;-68
2023/07/19 04:25:51;;;;;;;0.70;0.70;;;;;;;32.25;60.44;100066.03;5050918;28;20616;-68
2023/07/19 04:28:19;;;;;;;0.60;0.60;;;;;;;32.52;58.51;100056.88;5049596;28;20241;-68
2023/07/19 04:30:46;;;;;;;0.60;0.60;;;;;;;32.91;56.81;100052.00;5051260;28;20195;-67
2023/07/19 04:33:15;;;;;;;0.68;0.68;;;;;;;33.69;53.27;100067.38;5051620;28;20199;-67
2023/07/19 04:35:42;;;;;;;0.70;0.70;;;;;;;34.20;52.94;100063.13;5051687;28;20335;-68
2023/07/19 04:38:09;;;;;;;0.60;0.60;;;;;;;34.32;46.18;100074.69;5051557;28;20222;-67
2023/07/19 04:40:35;;;;;;;0.90;0.90;;;;;;;34.38;45.26;100065.25;5048046;28;20249;-74
2023/07/19 04:43:02;;;;;;;1.02;1.02;;;;;;;35.09;43.65;100051.03;5051217;28;20279;-72
2023/07/19 04:45:30;;;;;;;0.60;0.60;;;;;;;34.95;41.36;100070.25;5050462;28;20205;-71
2023/07/19 04:47:57;;;;;;;0.60;0.60;;;;;;;35.74;41.37;100070.41;5050658;28;20269;-72
2023/07/19 04:50:26;;;;;;;0.88;0.88;;;;;;;36.00;38.88;100064.47;5049512;28;20239;-73
2023/07/19 04:52:53;;;;;;;0.60;0.60;;;;;;;36.57;42.07;100078.09;5014978;28;20597;-73
2023/07/19 04:55:20;;;;;;;0.57;0.57;;;;;;;37.06;40.29;100093.31;5051181;28;20194;-70
2023/07/19 04:57:47;;;;;;;0.57;0.57;;;;;;;37.63;42.43;100097.69;5050194;28;20230;-72
2023/07/19 05:00:15;;;;;;;0.57;0.57;;;;;;;37.52;43.78;100089.78;5047633;28;20219;-73
2023/07/19 05:02:42;;;;;;;0.50;0.50;;;;;;;36.50;46.00;100081.47;5050901;28;20198;-71
2023/07/19 05:05:12;;;;;;;0.75;0.75;;;;;;;36.05;46.39;100075.72;5050091;28;20284;-72
2023/07/19 05:07:40;;;;;;;0.70;0.70;;;;;;;36.42;46.32;100068.72;5050518;28;20199;-73
2023/07/19 05:10:08;;;;;;;0.60;0.60;;;;;;;36.63;45.96;100065.88;5050631;28;20202;-72
2023/07/19 05:12:35;;;;;;;0.70;0.70;;;;;;;37.06;45.59;100068.13;4982812;28;20238;-71
2023/07/19 05:15:02;;;;;;;0.82;0.82;;;;;;;37.12;44.25;100075.63;5049240;28;20195;-70
2023/07/19 05:17:29;;;;;;;1.05;1.05;;;;;;;37.10;45.36;100058.72;5050326;28;20559;-70
2023/07/19 05:19:56;;;;;;;0.50;0.50;;;;;;;36.99;45.89;100070.53;5050010;28;20245;-70
2023/07/19 05:22:23;;;;;;;1.15;1.15;;;;;;;36.89;45.84;100058.03;5050342;28;20957;-71
2023/07/19 05:24:51;;;;;;;1.05;1.05;;;;;;;36.95;46.88;100066.41;5050749;28;20194;-70
2023/07/19 05:27:18;;;;;;;1.02;1.02;;;;;;;37.17;47.48;100057.13;5044573;28;20203;-71
2023/07/19 05:29:44;;;;;;;0.50;0.50;;;;;;;37.41;47.32;100060.16;5049406;28;20198;-72
2023/07/19 05:32:11;;;;;;;0.60;0.60;;;;;;;37.34;47.79;100053.63;5049854;28;20223;-74
2023/07/19 05:34:38;;;;;;;1.00;1.00;;;;;;;37.63;46.18;100067.06;5050748;28;20207;-73
2023/07/19 05:37:06;;;;;;;0.60;0.60;;;;;;;37.83;46.26;100060.53;5010530;28;20204;-73
2023/07/19 05:39:33;;;;;;;0.60;0.60;;;;;;;37.78;45.45;100068.25;5030663;28;20227;-73
2023/07/19 05:42:02;;;;;;;0.70;0.70;;;;;;;37.59;44.73;100058.41;5046865;28;20213;-73
2023/07/19 05:44:28;;;;;;;0.60;0.60;;;;;;;37.14;45.23;100046.56;5050476;28;20234;-72
2023/07/19 05:46:55;;;;;;;0.50;0.50;;;;;;;37.33;46.23;100038.41;5049441;28;20269;-72
2023/07/19 05:49:22;;;;;;;0.60;0.60;;;;;;;37.61;46.30;100052.81;4995905;28;20199;-72
2023/07/19 05:51:50;;;;;;;1.20;1.20;;;;;;;37.67;44.08;100053.06;4996050;28;20207;-73
2023/07/19 05:54:17;;;;;;;0.93;0.93;;;;;;;37.64;43.33;100049.81;5048692;28;20195;-73
2023/07/19 05:56:43;;;;;;;0.82;0.82;;;;;;;37.05;44.38;100039.34;5049662;28;20222;-73
2023/07/19 05:59:12;;;;;;;1.17;1.15;;;;;;;36.71;45.52;100042.53;5036599;28;20235;-74
2023/07/19 06:01:38;;;;;;;1.88;1.70;;;;;;;36.16;46.03;100032.44;5009064;28;20744;-74
2023/07/19 06:04:06;;;;;;;1.73;1.60;;;;;;;35.80;47.32;100013.19;5046269;28;20202;-74
2023/07/19 06:06:34;;;;;;;4.22;2.22;;;;;;;35.98;47.25;100013.34;5012596;28;20246;-74
2023/07/19 06:09:05;;;;;;;1.90;1.55;;;;;;;36.02;46.12;100019.31;5048447;28;20217;-73
2023/07/19 06:11:32;;;;;;;1.60;1.50;;;;;;;36.34;44.84;100019.06;5046161;28;20613;-74
2023/07/19 06:13:58;;;;;;;1.70;1.60;;;;;;;36.25;44.70;100009.97;5048461;28;20202;-73
2023/07/19 06:16:27;;;;;;;2.47;2.03;;;;;;;36.48;44.33;99995.19;5047744;28;20203;-75
2023/07/19 06:18:53;;;;;;;1.30;1.30;;;;;;;36.55;45.88;100006.25;5047836;28;20663;-74
2023/07/19 06:21:20;;;;;;;1.27;1.27;;;;;;;36.15;45.38;99998.31;5039225;28;20615;-73
2023/07/19 06:23:47;;;;;;;1.40;1.30;;;;;;;35.37;40.72;99998.25;5041770;28;20209;-73
2023/07/19 06:26:14;;;;;;;1.02;1.02;;;;;;;35.44;41.46;99992.19;5043603;28;20256;-72
2023/07/19 06:28:40;;;;;;;0.90;0.90;;;;;;;34.95;40.78;99992.09;5007941;28;20726;-74
2023/07/19 06:31:07;;;;;;;0.90;0.90;;;;;;;35.13;42.54;99993.22;5036899;28;20309;-74
2023/07/19 06:33:35;;;;;;;1.30;1.30;;;;;;;34.89;42.82;99985.38;5041167;28;20194;-74
2023/07/19 06:36:02;;;;;;;1.67;1.42;;;;;;;33.89;46.86;99993.94;5044217;28;20203;-73
2023/07/19 06:38:29;;;;;;;1.60;1.50;;;;;;;33.12;49.16;100002.97;5047970;28;20207;-72
2023/07/19 06:41:01;;;;;;;1.75;1.65;;;;;;;32.44;51.63;99995.69;5047741;28;20273;-74
2023/07/19 06:43:28;;;;;;;1.90;1.70;;;;;;;32.37;52.87;99995.31;5035659;28;20303;-76
2023/07/19 06:45:55;;;;;;;1.67;1.58;;;;;;;32.70;51.88;99997.28;5042578;28;20301;-74
2023/07/19 06:48:22;;;;;;;1.60;1.50;;;;;;;32.65;51.17;99969.03;5039855;28;20203;-75
2023/07/19 06:50:50;;;;;;;2.05;1.65;;;;;;;32.75;50.30;99978.94;5034191;28;20215;-71
2023/07/19 06:53:17;;;;;;;2.45;1.73;;;;;;;33.00;50.71;99999.38;5043626;28;20567;-70
2023/07/19 06:55:44;;;;;;;2.13;1.77;;;;;;;32.74;49.97;100004.13;5043982;28;20298;-70
2023/07/19 06:58:11;;;;;;;2.70;1.83;;;;;;;32.91;50.13;100003.66;5039662;28;20227;-72
2023/07/19 07:00:37;;;;;;;0.98;0.98;;;;;;;33.16;49.80;100005.28;5041269;28;21100;-72
2023/07/19 07:03:04;;;;;;;1.30;1.30;;;;;;;33.21;49.84;100003.06;5046356;28;20673;-71
2023/07/19 07:05:32;;;;;;;1.20;1.20;;;;;;;33.24;50.36;100005.53;5010489;28;20562;-69
2023/07/19 07:08:00;;;;;;;1.50;1.40;;;;;;;33.27;50.31;99997.22;5047838;28;20284;-70
2023/07/19 07:10:26;;;;;;;1.30;1.30;;;;;;;33.28;47.03;99998.09;5010359;28;20226;-71
2023/07/19 07:12:53;;;;;;;1.73;1.63;;;;;;;33.44;47.87;100003.91;5043353;28;20260;-71
2023/07/19 07:15:20;;;;;;;1.20;1.20;;;;;;;33.44;47.08;99993.16;5017844;28;20209;-71
2023/07/19 07:17:48;;;;;;;1.38;1.38;;;;;;;33.70;47.05;100004.53;5039388;28;20206;-70
2023/07/19 07:20:15;;;;;;;1.17;1.17;;;;;;;33.75;46.59;100003.16;5039327;28;20222;-71
2023/07/19 07:22:41;;;;;;;0.90;0.90;;;;;;;33.76;45.60;99986.03;5048486;28;20217;-71
2023/07/19 07:25:10;;;;;;;0.82;0.82;;;;;;;34.00;45.68;99995.75;5061435;28;20222;-71
2023/07/19 07:27:36;;;;;;;0.77;0.77;;;;;;;33.85;46.65;99993.34;5045236;28;20214;-72
2023/07/19 07:30:04;;;;;;;0.80;0.80;;;;;;;33.50;46.72;99927.28;5051748;28;20276;-71
2023/07/19 07:32:31;;;;;;;0.82;0.82;;;;;;;33.94;46.29;99983.66;5045739;28;20214;-71
2023/07/19 07:34:58;;;;;;;0.80;0.80;;;;;;;33.95;45.40;99988.06;5049916;28;20257;-73
2023/07/19 07:37:25;;;;;;;0.70;0.70;;;;;;;34.11;46.20;99979.53;5038195;28;20211;-71
2023/07/19 07:39:51;;;;;;;0.93;0.93;;;;;;;34.20;45.76;99971.59;5041060;28;20222;-73
2023/07/19 07:42:20;;;;;;;0.70;0.70;;;;;;;34.37;44.78;99994.38;5045162;28;20277;-72
2023/07/19 07:44:47;;;;;;;0.80;0.80;;;;;;;34.45;45.04;99991.03;5048748;28;20666;-71
2023/07/19 07:47:16;;;;;;;0.70;0.70;;;;;;;34.27;45.25;99962.00;5049520;28;20280;-72
2023/07/19 07:49:43;;;;;;;1.02;1.02;;;;;;;34.42;44.39;99984.09;5051356;28;20294;-71
2023/07/19 07:52:11;;;;;;;0.90;0.90;;;;;;;34.58;44.89;99989.88;5047352;28;20195;-72
2023/07/19 07:54:38;;;;;;;0.60;0.60;;;;;;;34.48;44.11;99983.56;5051632;28;20199;-71
2023/07/19 07:57:05;;;;;;;0.73;0.73;;;;;;;34.44;44.52;99990.19;5041073;28;20223;-73
2023/07/19 07:59:33;;;;;;;0.90;0.90;;;;;;;34.67;44.38;99986.41;5050624;28;20231;-74
2023/07/19 08:02:00;;;;;;;0.80;0.80;;;;;;;34.39;44.33;99960.09;5008406;28;20216;-73
2023/07/19 08:04:27;;;;;;;0.80;0.80;;;;;;;34.70;45.08;99983.47;5013055;28;20291;-75
2023/07/19 08:06:54;;;;;;;1.00;1.00;;;;;;;34.88;44.34;99972.06;5033174;28;20195;-72
2023/07/19 08:09:21;;;;;;;0.80;0.80;;;;;;;35.07;43.74;99980.25;5048505;28;20229;-73
2023/07/19 08:11:48;;;;;;;0.80;0.80;;;;;;;34.92;44.35;99992.38;5046495;28;20689;-74
2023/07/19 08:14:14;;;;;;;1.00;1.00;;;;;;;34.89;43.11;99985.38;5049124;28;20285;-74
2023/07/19 08:16:43;;;;;;;0.80;0.80;;;;;;;34.99;41.01;99980.06;5049180;28;20210;-72
2023/07/19 08:19:09;;;;;;;1.75;1.38;;;;;;;34.70;44.15;99970.00;5043399;28;20210;-73
2023/07/19 08:21:36;;;;;;;0.80;0.80;;;;;;;34.75;43.72;99981.19;5049042;28;20207;-74
2023/07/19 08:24:03;;;;;;;1.00;1.00;;;;;;;34.76;43.58;99971.28;5043642;28;20210;-73
2023/07/19 08:26:30;;;;;;;0.80;0.80;;;;;;;34.45;42.91;99948.81;5051267;28;20206;-74
2023/07/19 08:28:57;;;;;;;0.95;0.95;;;;;;;34.23;42.82;99970.47;5050368;28;20195;-74
2023/07/19 08:31:24;;;;;;;0.90;0.90;;;;;;;34.40;42.88;99967.19;5051232;28;20634;-70
2023/07/19 08:33:52;;;;;;;1.10;1.10;;;;;;;34.69;41.40;99970.09;5043680;28;20301;-71
2023/07/19 08:36:19;;;;;;;0.98;0.98;;;;;;;34.79;42.18;99953.00;5049440;28;20206;-71
2023/07/19 08:38:48;;;;;;;0.93;0.93;;;;;;;34.66;42.91;99957.78;5010548;28;20214;-74
2023/07/19 08:41:21;;;;;;;1.20;1.20;;;;;;;34.89;44.22;99963.00;5047954;28;20724;-74
2023/07/19 08:43:48;;;;;;;1.55;1.45;;;;;;;34.91;43.88;99952.91;5030476;28;20776;-75
2023/07/19 08:46:16;;;;;;;1.70;1.60;;;;;;;35.06;45.15;99959.66;5043217;28;20666;-74
2023/07/19 08:48:47;;;;;;;1.40;1.40;;;;;;;35.00;42.81;99954.78;5049248;28;20290;-73
2023/07/19 08:51:15;;;;;;;1.42;1.33;;;;;;;35.02;42.32;99956.38;5045538;28;20321;-73
2023/07/19 08:53:42;;;;;;;2.00;1.90;;;;;;;34.97;41.60;99949.69;5044393;28;20709;-73
2023/07/19 08:56:10;;;;;;;1.48;1.48;;;;;;;34.99;41.90;99931.53;5048662;28;20203;-70
2023/07/19 08:58:39;;;;;;;7.38;2.20;;;;;;;34.88;39.37;99958.59;5046732;28;20237;-70
2023/07/19 09:01:07;;;;;;;9.27;2.33;;;;;;;34.96;39.17;99937.22;5049500;28;20722;-70
2023/07/19 09:03:34;;;;;;;1.10;1.10;;;;;;;35.24;38.59;99958.06;5037144;28;20246;-71
2023/07/19 09:06:01;;;;;;;1.10;1.10;;;;;;;35.37;38.71;99953.25;5047870;28;20207;-71
2023/07/19 09:08:37;;;;;;;0.90;0.90;;;;;;;35.47;38.32;99943.34;5043226;28;20199;-72
2023/07/19 09:11:05;;;;;;;1.27;1.27;;;;;;;35.56;37.46;99941.66;5047525;28;20217;-72
2023/07/19 09:13:32;;;;;;;1.27;1.27;;;;;;;35.62;37.93;99931.19;5049485;28;20202;-72
2023/07/19 09:15:59;;;;;;;1.10;1.10;;;;;;;35.72;37.98;99929.34;5047386;28;20297;-71
2023/07/19 09:18:29;;;;;;;1.30;1.30;;;;;;;35.49;37.11;99903.63;5044750;28;20246;-70
2023/07/19 09:20:59;;;;;;;1.23;1.23;;;;;;;35.82;36.71;99937.44;5046191;28;20242;-71
2023/07/19 09:23:26;;;;;;;1.45;1.45;;;;;;;35.80;39.29;99926.81;5009725;28;20206;-70
2023/07/19 09:25:56;;;;;;;1.35;1.35;;;;;;;35.92;36.54;99930.25;5050079;28;20237;-71
2023/07/19 09:28:23;;;;;;;1.52;1.50;;;;;;;36.10;36.94;99925.81;5048934;28;20679;-71
2023/07/19 09:30:56;;;;;;;1.40;1.40;;;;;;;36.13;35.99;99892.31;5048748;28;20209;-70
2023/07/19 09:33:25;;;;;;;1.23;1.23;;;;;;;36.01;37.07;99915.88;5032552;28;20211;-70
2023/07/19 09:35:54;;;;;;;1.55;1.45;;;;;;;36.18;36.20;99917.88;5047167;28;20207;-69
2023/07/19 09:38:22;;;;;;;1.10;1.10;;;;;;;36.21;37.42;99905.94;5043053;28;20203;-74
2023/07/19 09:40:50;;;;;;;1.17;1.17;;;;;;;36.50;34.76;99922.91;5041690;28;20834;-73
2023/07/19 09:43:19;;;;;;;1.20;1.20;;;;;;;36.33;34.45;99926.38;5027910;28;20202;-71
2023/07/19 09:45:48;;;;;;;1.08;1.08;;;;;;;36.25;33.49;99920.84;5050185;28;20202;-68
2023/07/19 09:48:16;;;;;;;1.52;1.42;;;;;;;36.10;35.63;99920.44;5048807;28;20199;-69
2023/07/19 09:50:43;;;;;;;1.33;1.30;;;;;;;36.14;34.98;99915.59;5048454;28;20551;-69
2023/07/19 09:53:12;;;;;;;1.65;1.55;;;;;;;36.16;35.75;99902.81;5004990;28;20226;-68
2023/07/19 09:55:40;;;;;;;1.33;1.30;;;;;;;36.51;35.20;99908.41;5042120;28;20200;-67
2023/07/19 09:58:10;;;;;;;1.20;1.20;;;;;;;36.72;35.83;99905.53;5043280;28;20772;-68
2023/07/19 10:00:39;;;;;;;1.50;1.40;;;;;;;36.62;33.78;99888.50;5043991;28;20321;-68
2023/07/19 10:03:08;;;;;;;1.33;1.33;;;;;;;35.80;33.71;99828.81;5042782;28;20672;-68
2023/07/19 10:05:36;;;;;;;1.50;1.40;;;;;;;36.16;33.82;99890.16;5047142;28;20206;-68
2023/07/19 10:08:04;;;;;;;1.00;1.00;;;;;;;36.36;34.50;99874.75;5045493;28;20190;-68
2023/07/19 10:10:38;;;;;;;1.52;1.42;;;;;;;36.70;34.10;99892.19;5048344;28;20253;-69
2023/07/19 10:13:06;;;;;;;1.35;1.30;;;;;;;36.61;33.83;99887.66;5049053;28;20203;-69
2023/07/19 10:15:32;;;;;;;1.00;1.00;;;;;;;36.68;32.18;99886.06;5047532;28;20210;-69
2023/07/19 10:18:01;;;;;;;1.20;1.20;;;;;;;36.73;32.64;99870.25;5048211;28;20260;-69
2023/07/19 10:20:30;;;;;;;0.60;0.60;;;;;;;36.74;32.48;99874.66;5012428;28;20320;-68
2023/07/19 10:22:58;;;;;;;0.95;0.95;;;;;;;36.70;33.46;99875.13;5040150;28;20249;-72
2023/07/19 10:25:28;;;;;;;0.52;0.52;;;;;;;36.52;32.96;99877.72;5045684;28;20230;-70
2023/07/19 10:28:00;;;;;;;0.50;0.50;;;;;;;36.84;32.91;99871.91;5049023;28;20678;-72
2023/07/19 10:30:51;;;;;;;0.60;0.60;;;;;;;37.29;32.07;99861.16;5050583;28;20720;-71
2023/07/19 10:33:21;;;;;;;0.60;0.60;;;;;;;37.36;33.20;99862.22;4992248;28;20212;-73
2023/07/19 10:35:50;;;;;;;0.60;0.60;;;;;;;37.43;32.88;99868.72;4987770;28;20205;-68
2023/07/19 10:38:19;;;;;;;1.55;1.10;;;;;;;36.93;31.90;99853.94;4986081;28;20347;-69
2023/07/19 10:40:48;;;;;;;0.60;0.60;;;;;;;37.17;32.47;99840.75;4982359;28;20319;-69
2023/07/19 10:43:15;;;;;;;0.60;0.60;;;;;;;36.84;32.51;99844.03;4979172;28;20568;-72
2023/07/19 10:45:42;;;;;;;0.77;0.77;;;;;;;36.81;32.26;99837.09;4981723;28;20213;-72
2023/07/19 10:48:10;;;;;;;0.50;0.50;;;;;;;37.03;32.90;99847.50;4985455;28;20212;-70
2023/07/19 10:50:39;;;;;;;0.60;0.60;;;;;;;36.76;31.20;99840.22;4957035;28;20205;-72
2023/07/19 10:53:07;;;;;;;0.55;0.55;;;;;;;36.40;32.57;99770.81;4991268;28;20209;-69
2023/07/19 10:55:34;;;;;;;3.47;2.03;;;;;;;36.80;33.45;99827.25;4990669;28;20220;-70
2023/07/19 10:58:00;;;;;;;0.52;0.52;;;;;;;36.89;32.98;99837.16;4979626;28;20228;-68
2023/07/19 11:00:27;;;;;;;0.60;0.60;;;;;;;36.70;34.02;99794.91;4983269;28;20298;-72
2023/07/19 11:02:54;;;;;;;0.50;0.50;;;;;;;37.00;32.99;99839.66;4991244;28;20251;-75
2023/07/19 11:05:22;;;;;;;0.60;0.60;;;;;;;37.01;32.72;99827.00;4991534;28;20205;-75
2023/07/19 11:07:51;;;;;;;0.60;0.60;;;;;;;36.89;32.00;99798.50;4989092;28;20682;-69
2023/07/19 11:10:18;;;;;;;0.60;0.60;;;;;;;37.10;32.67;99815.31;5018733;28;20263;-69
2023/07/19 11:12:45;;;;;;;0.60;0.60;;;;;;;37.32;32.84;99814.84;5051535;28;20272;-69
2023/07/19 11:15:12;;;;;;;0.50;0.50;;;;;;;37.42;33.17;99804.81;5050025;28;20208;-70
2023/07/19 11:17:39;;;;;;;0.50;0.50;;;;;;;37.50;32.40;99810.31;5045804;28;20210;-70
2023/07/19 11:20:10;;;;;;;0.50;0.50;;;;;;;37.43;33.04;99809.19;5050403;28;20203;-69
2023/07/19 11:22:36;;;;;;;0.57;0.57;;;;;;;37.36;32.24;99808.13;5040006;28;20369;-68
2023/07/19 11:25:10;;;;;;;0.63;0.63;;;;;;;37.15;33.81;99765.16;5045333;28;20203;-69
2023/07/19 11:27:38;;;;;;;0.70;0.70;;;;;;;37.04;33.28;99775.34;5045838;28;20226;-68
2023/07/19 11:30:06;;;;;;;0.80;0.80;;;;;;;37.41;32.54;99808.53;5050375;28;20199;-69